Warsaw, North Dakota
Current Conditions -  °F | °C
As of 4:55 PM on Tuesday 21 Oct 2014 (Local Time) from KGAF Reporting Station
Clear Clear  
Wind Chill: 64°   Ceiling: Unl
Heat Index: 64°   Visibility: 10mi
Dew Point: 41°   Wind: 28mph
Humidity: 42%   Direction: 150°SSE
Pressure: 29.83"   Gusts: 37mph
Location:  48.3242°N, 97.2579°W
Report Text: KGAF 212155Z AUTO 15024G32KT 10SM CLR 18/05 A2983 RMK AO2
Loading
Personal Weather Stations






























Interactive Weather Map
Tropical Storm Tracking
New forecast layout! Learn more

10-Day Weather Forecast

Advertisements
Track Severe Weather on mobile